createdAt,value
2018-07-14T00:02:19.639Z,81.80
2018-07-14T00:04:47.443Z,84.80
2018-07-14T00:07:15.172Z,84.60
2018-07-14T00:09:42.988Z,83.00
2018-07-14T00:12:10.807Z,84.50
2018-07-14T00:14:38.645Z,85.10
2018-07-14T00:17:06.519Z,85.20
2018-07-14T00:19:34.275Z,85.00
2018-07-14T00:22:02.064Z,86.80
2018-07-14T00:24:29.890Z,86.20
2018-07-14T00:26:57.615Z,86.90
2018-07-14T00:29:25.470Z,86.70
2018-07-14T00:31:53.240Z,87.30
2018-07-14T00:34:21.012Z,87.00
2018-07-14T00:36:48.785Z,87.20
2018-07-14T00:39:16.603Z,86.80
2018-07-14T00:41:44.349Z,87.50
2018-07-14T00:44:12.120Z,87.30
2018-07-14T00:46:39.947Z,87.60
2018-07-14T00:49:07.796Z,88.00
2018-07-14T00:51:35.555Z,88.10
2018-07-14T00:54:03.431Z,88.10
2018-07-14T00:56:31.216Z,87.60
2018-07-14T00:58:59.026Z,88.10
2018-07-14T01:01:26.867Z,87.50
2018-07-14T01:03:54.669Z,87.50
2018-07-14T01:06:22.507Z,86.30
2018-07-14T01:08:50.271Z,87.70
2018-07-14T01:11:18.012Z,86.20
2018-07-14T01:13:45.886Z,86.80
2018-07-14T01:16:13.723Z,87.60
2018-07-14T01:18:41.543Z,88.70
2018-07-14T01:21:09.374Z,88.40
2018-07-14T01:23:37.211Z,89.10
2018-07-14T01:26:05.528Z,88.90
2018-07-14T01:28:33.455Z,86.90
2018-07-14T01:31:01.318Z,87.70
2018-07-14T01:33:29.101Z,87.90
2018-07-14T01:35:56.874Z,87.90
2018-07-14T01:38:24.663Z,87.50
2018-07-14T01:40:52.474Z,88.30
2018-07-14T01:43:20.223Z,88.60
2018-07-14T01:45:48.000Z,88.10
2018-07-14T01:48:15.719Z,88.50
2018-07-14T01:50:43.519Z,89.00
2018-07-14T01:55:39.132Z,89.20
2018-07-14T01:58:06.883Z,89.90
2018-07-14T02:00:34.691Z,89.60
2018-07-14T02:03:02.536Z,89.50
2018-07-14T02:05:30.324Z,89.60
2018-07-14T02:07:58.168Z,90.10
2018-07-14T02:10:25.964Z,90.00
2018-07-14T02:12:53.705Z,90.00
2018-07-14T02:15:21.516Z,90.20
2018-07-14T02:17:49.294Z,90.40
2018-07-14T02:20:17.250Z,90.30
2018-07-14T02:22:45.083Z,90.70
2018-07-14T02:25:12.901Z,90.20
2018-07-14T02:27:40.726Z,89.90
2018-07-14T02:30:08.486Z,90.10
2018-07-14T02:32:36.315Z,90.00
2018-07-14T02:35:04.206Z,89.90
2018-07-14T02:37:31.999Z,89.90
2018-07-14T02:39:59.820Z,89.50
2018-07-14T02:42:27.645Z,89.70
2018-07-14T02:44:55.424Z,90.00
2018-07-14T02:47:23.221Z,90.10
2018-07-14T02:49:51.039Z,90.10
2018-07-14T02:52:18.989Z,90.10
2018-07-14T02:54:47.083Z,90.30
2018-07-14T02:57:14.856Z,90.10
2018-07-14T02:59:42.741Z,90.10
2018-07-14T03:02:10.516Z,89.90
2018-07-14T03:04:38.307Z,90.00
2018-07-14T03:07:06.267Z,90.00
2018-07-14T03:09:34.179Z,90.00
2018-07-14T03:12:01.940Z,90.00
2018-07-14T03:14:29.767Z,90.00
2018-07-14T03:16:57.620Z,90.00
2018-07-14T03:19:25.471Z,89.30
2018-07-14T03:21:53.376Z,89.60
2018-07-14T03:24:21.268Z,90.00
2018-07-14T03:26:49.165Z,90.00
2018-07-14T03:29:16.944Z,89.30
2018-07-14T03:31:44.751Z,90.00
2018-07-14T03:34:12.560Z,89.00
2018-07-14T03:36:40.345Z,89.00
2018-07-14T03:39:08.175Z,88.20
2018-07-14T03:41:36.043Z,88.30
2018-07-14T03:44:03.853Z,88.10
2018-07-14T03:46:31.675Z,88.20
2018-07-14T03:48:59.499Z,88.20
2018-07-14T03:51:27.315Z,87.60
2018-07-14T03:53:55.144Z,87.00
2018-07-14T03:56:23.056Z,86.50
2018-07-14T03:58:50.802Z,86.00
2018-07-14T04:01:18.599Z,86.80
2018-07-14T04:03:46.340Z,85.90
2018-07-14T04:06:14.113Z,86.40
2018-07-14T04:08:41.947Z,84.90
2018-07-14T04:11:09.747Z,85.80
2018-07-14T04:13:37.588Z,85.30
2018-07-14T04:16:05.450Z,84.50
2018-07-14T04:18:33.299Z,84.50
2018-07-14T04:21:01.151Z,83.90
2018-07-14T04:23:29.000Z,84.80
2018-07-14T04:25:56.811Z,83.80
2018-07-14T04:28:24.575Z,84.60
2018-07-14T04:30:52.435Z,85.20
2018-07-14T04:33:20.260Z,85.80
2018-07-14T04:35:48.113Z,85.50
2018-07-14T04:38:15.921Z,83.90
2018-07-14T04:40:43.699Z,84.50
2018-07-14T04:43:11.516Z,83.80
2018-07-14T04:45:39.348Z,83.90
2018-07-14T04:48:07.147Z,83.50
2018-07-14T04:50:34.971Z,83.50
2018-07-14T04:53:02.834Z,84.10
2018-07-14T04:55:30.626Z,83.90
2018-07-14T04:57:58.513Z,84.40
2018-07-14T05:00:26.314Z,84.80
2018-07-14T05:02:54.108Z,84.30
2018-07-14T05:05:21.913Z,84.10
2018-07-14T05:07:49.718Z,83.20
2018-07-14T05:10:17.529Z,84.40
2018-07-14T05:12:45.360Z,83.60
2018-07-14T05:17:40.963Z,83.00
2018-07-14T05:20:08.771Z,84.60
2018-07-14T05:22:36.558Z,84.30
2018-07-14T05:25:04.496Z,85.30
2018-07-14T05:27:32.235Z,85.10
2018-07-14T05:30:00.091Z,85.10
2018-07-14T05:32:27.912Z,84.50
2018-07-14T05:34:55.736Z,84.70
2018-07-14T05:37:23.555Z,83.10
2018-07-14T05:39:51.334Z,83.10
2018-07-14T05:44:46.964Z,81.10
2018-07-14T05:47:14.900Z,82.10
2018-07-14T05:49:42.680Z,82.90
2018-07-14T05:52:10.553Z,82.50
2018-07-14T05:54:38.296Z,82.20
2018-07-14T05:57:06.139Z,81.60
2018-07-14T05:59:34.051Z,80.30
2018-07-14T06:02:01.844Z,80.50
2018-07-14T06:04:29.700Z,78.70
2018-07-14T06:06:57.545Z,79.00
2018-07-14T06:09:25.356Z,80.00
2018-07-14T06:11:53.124Z,78.80
2018-07-14T06:14:21.031Z,78.30
2018-07-14T06:16:48.788Z,78.60
2018-07-14T06:19:16.585Z,78.30
2018-07-14T06:21:44.451Z,76.80
2018-07-14T06:24:12.275Z,75.70
2018-07-14T06:26:40.020Z,75.30
2018-07-14T06:29:07.775Z,74.20
2018-07-14T06:31:35.625Z,75.50
2018-07-14T06:34:03.460Z,75.00
2018-07-14T06:36:31.308Z,75.60
2018-07-14T06:38:59.063Z,75.40
2018-07-14T06:41:26.966Z,75.50
2018-07-14T06:43:54.772Z,74.90
2018-07-14T06:46:22.644Z,75.20
2018-07-14T06:48:50.466Z,75.00
2018-07-14T06:51:18.282Z,72.40
2018-07-14T06:53:46.005Z,72.80
2018-07-14T06:56:13.796Z,71.20
2018-07-14T06:58:41.687Z,69.10
2018-07-14T07:01:09.544Z,68.30
2018-07-14T07:03:37.442Z,65.50
2018-07-14T07:06:05.304Z,63.20
2018-07-14T07:08:33.195Z,62.90
2018-07-14T07:11:01.003Z,62.40
2018-07-14T07:13:28.851Z,64.00
2018-07-14T07:15:56.659Z,64.60
2018-07-14T07:18:24.571Z,63.50
2018-07-14T07:20:52.383Z,64.90
2018-07-14T07:23:20.213Z,63.70
2018-07-14T07:25:50.232Z,64.40
2018-07-14T07:28:17.979Z,64.50
2018-07-14T07:30:45.763Z,64.90
2018-07-14T07:33:13.583Z,64.80
2018-07-14T07:35:41.479Z,63.00
2018-07-14T07:38:09.336Z,63.50
2018-07-14T07:40:37.141Z,62.90
2018-07-14T07:43:05.170Z,63.50
2018-07-14T07:45:33.007Z,62.20
2018-07-14T07:48:00.766Z,62.00
2018-07-14T07:50:28.551Z,62.90
2018-07-14T07:52:56.355Z,61.60
2018-07-14T07:55:24.161Z,61.60
2018-07-14T07:57:51.950Z,62.40
2018-07-14T08:00:19.723Z,59.60
2018-07-14T08:02:47.556Z,60.30
2018-07-14T08:05:15.335Z,60.30
2018-07-14T08:07:43.171Z,61.40
2018-07-14T08:10:11.021Z,59.80
2018-07-14T08:12:38.900Z,60.70
2018-07-14T08:15:06.776Z,59.70
2018-07-14T08:17:34.592Z,59.60
2018-07-14T08:20:02.423Z,58.60
2018-07-14T08:22:30.268Z,58.30
2018-07-14T08:24:58.189Z,58.40
2018-07-14T08:27:25.976Z,58.10
2018-07-14T08:29:53.799Z,57.10
2018-07-14T08:32:21.684Z,56.70
2018-07-14T08:34:49.464Z,55.80
2018-07-14T08:37:17.264Z,55.20
2018-07-14T08:39:45.095Z,56.00
2018-07-14T08:42:12.827Z,55.80
2018-07-14T08:44:40.696Z,56.40
2018-07-14T08:47:08.599Z,55.50
2018-07-14T08:49:36.400Z,54.50
2018-07-14T08:52:04.263Z,54.00
2018-07-14T08:54:32.076Z,53.80
2018-07-14T08:56:59.984Z,52.80
2018-07-14T08:59:27.783Z,52.20
2018-07-14T09:01:55.585Z,52.40
2018-07-14T09:04:23.399Z,50.50
2018-07-14T09:06:51.356Z,49.40
2018-07-14T09:11:46.931Z,51.00
2018-07-14T09:14:14.771Z,50.90
2018-07-14T09:16:42.585Z,49.80
2018-07-14T09:19:10.504Z,50.50
2018-07-14T09:21:38.424Z,51.70
2018-07-14T09:24:06.287Z,48.90
2018-07-14T09:26:34.163Z,49.40
2018-07-14T09:29:01.983Z,49.20
2018-07-14T09:31:29.771Z,49.50
2018-07-14T09:33:57.592Z,47.90
2018-07-14T09:36:25.486Z,48.00
2018-07-14T09:38:53.292Z,45.60
2018-07-14T09:41:21.091Z,45.50
2018-07-14T09:43:48.879Z,45.90
2018-07-14T09:46:16.740Z,45.50
2018-07-14T09:48:44.566Z,45.60
2018-07-14T09:51:12.387Z,46.30
2018-07-14T09:53:40.230Z,45.10
2018-07-14T09:58:35.843Z,44.00
2018-07-14T10:01:06.599Z,45.50
2018-07-14T10:03:34.764Z,43.40
2018-07-14T10:06:02.634Z,40.90
2018-07-14T10:08:30.958Z,39.40
2018-07-14T10:10:58.836Z,38.50
2018-07-14T10:13:26.783Z,36.60
2018-07-14T10:15:54.967Z,37.10
2018-07-14T10:18:23.043Z,36.40
2018-07-14T10:20:50.992Z,37.30
2018-07-14T10:23:18.959Z,36.60
2018-07-14T10:25:46.998Z,35.20
2018-07-14T10:28:14.567Z,34.60
2018-07-14T10:30:42.355Z,35.30
2018-07-14T10:33:10.382Z,35.00
2018-07-14T10:35:38.232Z,33.70
2018-07-14T10:38:06.300Z,32.40
2018-07-14T10:40:34.415Z,33.30
2018-07-14T10:43:02.250Z,31.60
2018-07-14T10:45:30.051Z,31.60
2018-07-14T10:47:57.844Z,31.10
2018-07-14T10:50:25.647Z,30.40
2018-07-14T10:52:53.395Z,28.40
2018-07-14T10:55:21.192Z,28.80
2018-07-14T10:57:49.129Z,27.40
2018-07-14T11:00:17.692Z,28.30
2018-07-14T11:02:45.552Z,27.30
2018-07-14T11:05:13.370Z,27.20
2018-07-14T11:07:41.172Z,26.20
2018-07-14T11:10:08.930Z,26.30
2018-07-14T11:12:36.916Z,26.70
2018-07-14T11:15:04.858Z,26.80
2018-07-14T11:17:32.771Z,25.40
2018-07-14T11:20:00.588Z,25.70
2018-07-14T11:22:28.397Z,24.90
2018-07-14T11:24:56.161Z,25.00
2018-07-14T11:27:23.979Z,25.20
2018-07-14T11:32:19.619Z,25.50
2018-07-14T11:34:47.407Z,24.70
2018-07-14T11:37:15.226Z,24.80
2018-07-14T11:39:42.954Z,25.90
2018-07-14T11:42:10.836Z,25.70
2018-07-14T11:44:38.659Z,25.30
2018-07-14T11:47:06.585Z,24.60
2018-07-14T11:49:34.415Z,24.70
2018-07-14T11:52:02.263Z,24.90
2018-07-14T11:54:30.371Z,23.50
2018-07-14T11:56:58.249Z,23.70
2018-07-14T11:59:26.302Z,23.90
2018-07-14T12:01:54.167Z,23.30
2018-07-14T12:04:21.911Z,22.80
2018-07-14T12:06:49.738Z,22.70
2018-07-14T12:09:17.531Z,23.30
2018-07-14T12:11:45.391Z,23.30
2018-07-14T12:14:13.311Z,23.90
2018-07-14T12:16:41.035Z,23.80
2018-07-14T12:19:08.842Z,24.00
2018-07-14T12:21:36.674Z,24.70
2018-07-14T12:24:04.756Z,24.60
2018-07-14T12:26:32.633Z,23.60
2018-07-14T12:29:00.363Z,24.20
2018-07-14T12:31:28.159Z,23.70
2018-07-14T12:33:55.928Z,23.10
2018-07-14T12:36:23.763Z,23.70
2018-07-14T12:38:51.589Z,23.40
2018-07-14T12:41:19.416Z,24.20
2018-07-14T12:43:47.332Z,24.90
2018-07-14T12:46:15.141Z,24.20
2018-07-14T12:48:42.935Z,24.80
2018-07-14T12:53:38.565Z,24.00
2018-07-14T12:56:06.423Z,24.80
2018-07-14T12:58:34.277Z,24.60
2018-07-14T13:01:02.096Z,24.40
2018-07-14T13:03:29.932Z,23.70
2018-07-14T13:05:57.805Z,24.50
2018-07-14T13:08:25.638Z,24.10
2018-07-14T13:10:53.423Z,25.10
2018-07-14T13:13:21.243Z,26.80
2018-07-14T13:15:49.115Z,27.90
2018-07-14T13:18:16.880Z,28.40
2018-07-14T13:20:44.891Z,28.20
2018-07-14T13:23:12.731Z,28.30
2018-07-14T13:28:08.275Z,27.70
2018-07-14T13:30:36.119Z,27.30
2018-07-14T13:33:04.160Z,25.70
2018-07-14T13:35:31.992Z,24.80
2018-07-14T13:37:59.840Z,26.00
2018-07-14T13:40:27.703Z,27.70
2018-07-14T13:42:55.593Z,25.30
2018-07-14T13:45:23.754Z,26.60
2018-07-14T13:47:51.620Z,26.50
2018-07-14T13:50:19.474Z,28.00
2018-07-14T13:52:47.257Z,26.60
2018-07-14T13:55:15.104Z,27.30
2018-07-14T13:57:42.940Z,27.20
2018-07-14T14:02:38.627Z,27.20
2018-07-14T14:05:06.528Z,26.90
2018-07-14T14:07:34.423Z,27.50
2018-07-14T14:10:02.272Z,28.10
2018-07-14T14:12:31.243Z,27.50
2018-07-14T14:14:59.023Z,28.60
2018-07-14T14:17:26.897Z,27.60
2018-07-14T14:19:55.317Z,27.60
2018-07-14T14:22:23.025Z,28.60
2018-07-14T14:24:50.769Z,26.90
2018-07-14T14:27:18.564Z,29.20
2018-07-14T14:29:46.371Z,29.10
2018-07-14T14:32:14.843Z,28.90
2018-07-14T14:34:42.708Z,28.60
2018-07-14T14:37:10.549Z,27.80
2018-07-14T14:39:38.355Z,28.30
2018-07-14T14:42:06.488Z,29.70
2018-07-14T14:44:34.224Z,29.00
2018-07-14T14:47:02.096Z,29.00
2018-07-14T14:49:29.944Z,30.40
2018-07-14T14:51:57.779Z,29.70
2018-07-14T14:54:25.601Z,29.50
2018-07-14T14:56:53.439Z,30.20
2018-07-14T14:59:21.266Z,30.90
2018-07-14T15:01:49.000Z,29.90
2018-07-14T15:04:16.839Z,30.40
2018-07-14T15:06:44.635Z,29.90
2018-07-14T15:09:12.527Z,29.80
2018-07-14T15:11:40.363Z,31.00
2018-07-14T15:14:08.196Z,30.40
2018-07-14T15:16:36.008Z,29.90
2018-07-14T15:19:03.805Z,30.00
2018-07-14T15:21:31.571Z,28.60
2018-07-14T15:23:59.431Z,29.20
2018-07-14T15:26:28.112Z,30.30
2018-07-14T15:28:55.903Z,29.20
2018-07-14T15:31:24.070Z,30.70
2018-07-14T15:33:51.882Z,30.00
2018-07-14T15:36:19.703Z,29.60
2018-07-14T15:38:47.544Z,29.60
2018-07-14T15:41:15.421Z,31.30
2018-07-14T15:43:43.293Z,30.20
2018-07-14T15:46:11.135Z,30.80
2018-07-14T15:48:39.023Z,30.10
2018-07-14T15:51:06.887Z,30.10
2018-07-14T15:53:34.626Z,31.30
2018-07-14T15:56:02.531Z,30.60
2018-07-14T15:58:30.368Z,30.40
2018-07-14T16:00:58.171Z,30.00
2018-07-14T16:03:25.965Z,30.00
2018-07-14T16:05:53.779Z,30.10
2018-07-14T16:08:21.583Z,30.50
2018-07-14T16:10:49.638Z,30.90
2018-07-14T16:13:17.367Z,30.50
2018-07-14T16:15:45.188Z,30.60
2018-07-14T16:18:12.948Z,31.00
2018-07-14T16:20:40.696Z,30.30
2018-07-14T16:23:08.471Z,30.70
2018-07-14T16:25:36.362Z,30.60
2018-07-14T16:28:04.148Z,32.10
2018-07-14T16:30:31.931Z,31.60
2018-07-14T16:35:27.517Z,30.70
2018-07-14T16:37:55.336Z,29.90
2018-07-14T16:40:23.083Z,32.40
2018-07-14T16:42:51.438Z,31.20
2018-07-14T16:45:19.296Z,31.40
2018-07-14T16:47:47.108Z,32.50
2018-07-14T16:50:24.873Z,31.70
2018-07-14T16:52:52.951Z,31.40
2018-07-14T16:55:20.804Z,31.40
2018-07-14T16:57:48.643Z,31.10
2018-07-14T17:02:44.234Z,31.40
2018-07-14T17:05:12.096Z,32.90
2018-07-14T17:07:39.903Z,33.30
2018-07-14T17:10:07.779Z,33.00
2018-07-14T17:12:35.583Z,33.30
2018-07-14T17:15:03.435Z,33.00
2018-07-14T17:24:54.599Z,33.60
2018-07-14T17:27:22.395Z,34.30
2018-07-14T17:29:50.148Z,35.10
2018-07-14T17:32:17.995Z,35.30
2018-07-14T17:34:45.924Z,35.30
2018-07-14T17:37:13.725Z,35.50
2018-07-14T17:39:41.524Z,36.00
2018-07-14T17:42:09.363Z,36.40
2018-07-14T17:44:37.144Z,36.80
2018-07-14T17:47:05.201Z,37.10
2018-07-14T17:49:32.970Z,37.00
2018-07-14T17:52:00.917Z,37.50
2018-07-14T17:54:28.551Z,37.60
2018-07-14T17:56:56.426Z,38.20
2018-07-14T17:59:24.228Z,38.20
2018-07-14T18:01:52.055Z,38.90
2018-07-14T18:04:19.855Z,39.00
2018-07-14T18:06:47.649Z,38.90
2018-07-14T18:09:15.580Z,39.60
2018-07-14T18:11:43.380Z,39.60
2018-07-14T18:14:11.216Z,39.90
2018-07-14T18:16:39.097Z,40.10
2018-07-14T18:19:07.110Z,40.60
2018-07-14T18:21:34.983Z,40.90
2018-07-14T18:24:02.799Z,41.20
2018-07-14T18:26:30.632Z,41.50
2018-07-14T18:28:58.427Z,41.80
2018-07-14T18:31:26.248Z,42.10
2018-07-14T18:36:21.852Z,42.00
2018-07-14T18:38:49.680Z,42.10
2018-07-14T18:41:17.496Z,42.10
2018-07-14T18:43:45.343Z,42.00
2018-07-14T18:46:13.699Z,42.10
2018-07-14T18:48:41.506Z,42.40
2018-07-14T18:51:09.299Z,42.60
2018-07-14T18:53:37.180Z,42.70
2018-07-14T18:56:05.314Z,42.90
2018-07-14T18:58:33.158Z,42.90
2018-07-14T19:01:00.895Z,43.10
2018-07-14T19:03:28.755Z,43.10
2018-07-14T19:05:56.555Z,43.00
2018-07-14T19:08:24.528Z,43.20
2018-07-14T19:10:52.377Z,43.60
2018-07-14T19:13:20.158Z,44.00
2018-07-14T19:15:48.057Z,44.10
2018-07-14T19:18:15.866Z,44.40
2018-07-14T19:20:43.748Z,44.60
2018-07-14T19:23:11.540Z,44.80
2018-07-14T19:25:39.384Z,44.60
2018-07-14T19:28:07.244Z,45.50
2018-07-14T19:30:35.095Z,45.60
2018-07-14T19:33:03.036Z,45.50
2018-07-14T19:35:30.882Z,46.00
2018-07-14T19:37:58.705Z,46.70
2018-07-14T19:40:26.535Z,46.60
2018-07-14T19:42:54.315Z,47.30
2018-07-14T19:45:22.095Z,47.70
2018-07-14T19:47:50.076Z,47.90
2018-07-14T19:50:17.881Z,48.20
2018-07-14T19:52:45.648Z,48.50
2018-07-14T19:55:13.443Z,48.30
2018-07-14T19:57:41.279Z,48.60
2018-07-14T20:00:09.248Z,48.50
2018-07-14T20:02:37.103Z,48.00
2018-07-14T20:05:04.964Z,48.90
2018-07-14T20:07:32.740Z,48.00
2018-07-14T20:10:00.686Z,49.10
2018-07-14T20:12:29.832Z,49.80
2018-07-14T20:14:57.713Z,49.80
2018-07-14T20:17:25.531Z,50.60
2018-07-14T20:19:53.331Z,50.80
2018-07-14T20:24:48.988Z,52.40
2018-07-14T20:27:16.823Z,53.00
2018-07-14T20:29:44.684Z,53.40
2018-07-14T20:32:12.508Z,53.70
2018-07-14T20:34:40.277Z,54.60
2018-07-14T20:37:08.315Z,55.00
2018-07-14T20:39:36.099Z,54.90
2018-07-14T20:44:32.483Z,56.00
2018-07-14T20:47:00.403Z,56.50
2018-07-14T20:49:28.271Z,57.00
2018-07-14T20:51:56.086Z,56.80
2018-07-14T20:54:23.912Z,56.60
2018-07-14T20:56:51.803Z,57.50
2018-07-14T20:59:19.724Z,57.90
2018-07-14T21:01:47.520Z,57.80
2018-07-14T21:04:15.384Z,57.90
2018-07-14T21:06:43.253Z,58.30
2018-07-14T21:09:11.055Z,58.10
2018-07-14T21:11:38.832Z,58.70
2018-07-14T21:16:34.428Z,59.50
2018-07-14T21:19:02.335Z,59.50
2018-07-14T21:21:30.148Z,58.70
2018-07-14T21:23:57.968Z,59.60
2018-07-14T21:26:25.867Z,59.80
2018-07-14T21:28:53.656Z,59.90
2018-07-14T21:31:21.532Z,59.80
2018-07-14T21:33:49.359Z,60.50
2018-07-14T21:36:17.123Z,60.40
2018-07-14T21:41:12.967Z,61.80
2018-07-14T21:43:40.744Z,62.20
2018-07-14T21:46:08.520Z,62.60
2018-07-14T21:48:36.271Z,61.60
2018-07-14T21:51:04.322Z,62.20
2018-07-14T21:53:32.128Z,62.70
2018-07-14T21:55:59.867Z,62.40
2018-07-14T21:58:27.643Z,63.40
2018-07-14T22:01:04.692Z,63.80
2018-07-14T22:03:34.161Z,64.10
2018-07-14T22:06:02.438Z,64.50
2018-07-14T22:08:30.164Z,63.50
2018-07-14T22:10:58.036Z,64.30
2018-07-14T22:13:25.867Z,64.70
2018-07-14T22:15:54.387Z,64.40
2018-07-14T22:18:22.204Z,65.20
2018-07-14T22:20:50.040Z,65.00
2018-07-14T22:23:17.902Z,65.50
2018-07-14T22:25:45.692Z,65.90
2018-07-14T22:28:13.609Z,66.50
2018-07-14T22:30:41.465Z,66.00
2018-07-14T22:33:09.292Z,67.00
2018-07-14T22:35:37.068Z,67.40
2018-07-14T22:38:05.189Z,67.70
2018-07-14T22:40:33.027Z,67.10
2018-07-14T22:43:00.842Z,68.00
2018-07-14T22:47:56.487Z,69.10
2018-07-14T22:50:24.352Z,68.90
2018-07-14T22:52:52.604Z,69.50
2018-07-14T22:55:20.373Z,68.50
2018-07-14T22:57:48.171Z,69.40
2018-07-14T23:00:15.956Z,69.40
2018-07-14T23:05:12.575Z,70.80
2018-07-14T23:07:40.367Z,71.10
2018-07-14T23:10:08.215Z,70.80
2018-07-14T23:12:36.108Z,70.90
2018-07-14T23:15:03.959Z,71.80
2018-07-14T23:17:31.692Z,71.70
2018-07-14T23:19:59.442Z,72.10
2018-07-14T23:22:27.296Z,71.60
2018-07-14T23:24:55.080Z,71.90
2018-07-14T23:27:23.256Z,72.70
2018-07-14T23:29:51.057Z,72.90
2018-07-14T23:32:18.840Z,72.30
2018-07-14T23:34:46.690Z,73.00
2018-07-14T23:37:14.576Z,73.00
2018-07-14T23:39:42.380Z,71.60
2018-07-14T23:42:10.159Z,72.80
2018-07-14T23:44:37.912Z,72.90
2018-07-14T23:47:05.788Z,74.20
2018-07-14T23:49:33.575Z,73.20
2018-07-14T23:52:01.374Z,72.40
2018-07-14T23:54:29.157Z,73.90
2018-07-14T23:56:56.956Z,74.80
2018-07-14T23:59:24.802Z,75.50
